ETEB/QOB METAR and TAF weather

Enter ICAO airport designator
Station Type Date Time Source
ETEB METAR 2020/09/18 22:56 UTC NOAA

ETEB 182256Z AUTO 10004KT 9999 CLR 10/05 A3022 RMK AO2 SLP243 T01040047 401960092 $


Station Type Date Time Source
ETEB Decoded METAR 2020/09/18 22:56 UTC NOAA

Ansbach / Katterbach, Germany (ETEB) 49-19N 010-38E 476M
Sep 18, 2020 - 06:56 PM EDT / 2020.09.18 2256 UTC
Wind: from the E (100 degrees) at 5 MPH (4 KT):0
Visibility: greater than 7 mile(s):0
Sky conditions: clear
Temperature: 50.7 F (10.4 C)
Dew Point: 40.5 F (4.7 C)
Relative Humidity: 67%
Pressure (altimeter): 30.22 in. Hg (1023 hPa)
ob: ETEB 182256Z AUTO 10004KT 9999 CLR 10/05 A3022 RMK AO2 SLP243 T01040047 401960092
cycle: 23

Station Type Date Time Source
ETEB TAF 2020/09/18 09:06 UTC NOAA

TAF ETEB 180900Z 1809/1915 11009KT 9999 FEW050 QNH3024INS WND 12009KT AFT 1820 TX20/1815Z TN08/1903Z LAST NO
AMDS AFT 1816 NEXT 2109

Example: see airport list